createdAt,value
2023-05-01T00:00:08.699Z,7.32
2023-05-01T00:02:35.088Z,7.13
2023-05-01T00:05:01.714Z,8.07
2023-05-01T00:07:30.334Z,7.85
2023-05-01T00:09:56.557Z,9.50
2023-05-01T00:12:22.790Z,8.15
2023-05-01T00:14:48.723Z,7.45
2023-05-01T00:17:14.633Z,8.50
2023-05-01T00:19:40.760Z,7.78
2023-05-01T00:22:06.613Z,8.25
2023-05-01T00:24:32.497Z,8.55
2023-05-01T00:26:58.420Z,9.40
2023-05-01T00:29:24.582Z,9.40
2023-05-01T00:31:50.714Z,7.57
2023-05-01T00:34:16.592Z,8.32
2023-05-01T00:36:42.455Z,9.07
2023-05-01T00:39:08.465Z,10.23
2023-05-01T00:41:34.569Z,8.45
2023-05-01T00:44:00.480Z,9.02
2023-05-01T00:46:27.501Z,9.18
2023-05-01T00:48:53.495Z,10.20
2023-05-01T00:51:20.388Z,8.88
2023-05-01T00:53:46.139Z,8.75
2023-05-01T00:56:12.027Z,9.48
2023-05-01T00:58:38.481Z,8.48
2023-05-01T01:01:04.753Z,9.45
2023-05-01T01:03:30.924Z,9.90
2023-05-01T01:06:00.047Z,8.55
2023-05-01T01:08:28.008Z,9.30
2023-05-01T01:11:14.109Z,9.65
2023-05-01T01:13:46.854Z,8.27
2023-05-01T01:16:18.727Z,8.82
2023-05-01T01:18:47.398Z,8.23
2023-05-01T01:21:21.206Z,8.75
2023-05-01T01:23:46.963Z,8.98
2023-05-01T01:26:15.605Z,8.80
2023-05-01T01:29:00.496Z,9.52
2023-05-01T01:31:26.426Z,9.05
2023-05-01T01:34:27.369Z,9.65
2023-05-01T01:39:41.598Z,8.75
2023-05-01T01:42:09.193Z,9.18
2023-05-01T01:44:42.759Z,8.27
2023-05-01T01:47:10.728Z,8.38
2023-05-01T01:49:37.878Z,9.13
2023-05-01T01:52:04.859Z,9.25
2023-05-01T01:54:36.906Z,8.50
2023-05-01T01:57:02.870Z,9.63
2023-05-01T01:59:33.063Z,8.43
2023-05-01T02:02:00.533Z,9.27
2023-05-01T02:04:27.225Z,9.32
2023-05-01T02:06:55.201Z,8.27
2023-05-01T02:09:22.147Z,9.18
2023-05-01T02:11:51.849Z,8.57
2023-05-01T02:14:18.485Z,9.15
2023-05-01T02:16:44.717Z,8.60
2023-05-01T02:19:11.046Z,8.82
2023-05-01T02:21:37.782Z,8.65
2023-05-01T02:24:04.834Z,7.65
2023-05-01T02:26:31.279Z,9.02
2023-05-01T02:28:57.908Z,9.80
2023-05-01T02:31:23.805Z,7.55
2023-05-01T02:33:49.646Z,8.50
2023-05-01T02:36:15.480Z,8.60
2023-05-01T02:38:41.389Z,7.70
2023-05-01T02:41:08.029Z,8.30
2023-05-01T02:43:34.667Z,9.80
2023-05-01T02:46:01.654Z,8.50
2023-05-01T02:48:28.238Z,8.70
2023-05-01T02:50:55.222Z,8.55
2023-05-01T02:53:21.828Z,9.18
2023-05-01T02:55:48.089Z,8.07
2023-05-01T02:58:17.457Z,7.70
2023-05-01T03:00:44.137Z,7.50
2023-05-01T03:03:10.352Z,8.32
2023-05-01T03:05:37.600Z,7.97
2023-05-01T03:08:03.698Z,8.52
2023-05-01T03:10:29.462Z,10.27
2023-05-01T03:12:55.435Z,7.88
2023-05-01T03:15:21.245Z,7.28
2023-05-01T03:17:47.185Z,10.13
2023-05-01T03:20:13.094Z,7.93
2023-05-01T03:22:39.023Z,9.40
2023-05-01T03:25:05.081Z,8.52
2023-05-01T03:27:31.065Z,7.78
2023-05-01T03:29:57.276Z,8.40
2023-05-01T03:32:27.739Z,8.07
2023-05-01T03:34:53.755Z,8.57
2023-05-01T03:37:20.215Z,7.75
2023-05-01T03:39:46.192Z,7.57
2023-05-01T03:42:12.020Z,7.47
2023-05-01T03:44:37.829Z,7.90
2023-05-01T03:47:04.194Z,7.55
2023-05-01T03:49:30.125Z,7.75
2023-05-01T03:51:56.306Z,8.77
2023-05-01T03:54:22.125Z,8.20
2023-05-01T03:56:47.946Z,8.10
2023-05-01T03:59:13.969Z,7.57
2023-05-01T04:01:40.133Z,6.43
2023-05-01T04:04:07.403Z,9.05
2023-05-01T04:06:33.374Z,7.25
2023-05-01T04:08:59.405Z,7.13
2023-05-01T04:11:25.623Z,7.43
2023-05-01T04:13:51.356Z,7.15
2023-05-01T04:16:17.637Z,7.25
2023-05-01T04:18:43.423Z,6.45
2023-05-01T04:21:09.322Z,6.88
2023-05-01T04:23:35.224Z,8.02
2023-05-01T04:26:01.068Z,6.85
2023-05-01T04:28:30.354Z,7.38
2023-05-01T04:30:56.979Z,6.85
2023-05-01T04:33:22.986Z,6.60
2023-05-01T04:35:48.835Z,6.85
2023-05-01T04:38:14.634Z,5.97
2023-05-01T04:40:40.464Z,6.03
2023-05-01T04:43:06.274Z,6.47
2023-05-01T04:45:32.067Z,6.55
2023-05-01T04:47:57.904Z,7.55
2023-05-01T04:50:23.829Z,7.32
2023-05-01T04:52:49.625Z,5.63
2023-05-01T04:55:15.966Z,5.75
2023-05-01T04:57:41.769Z,5.30
2023-05-01T05:00:07.985Z,5.65
2023-05-01T05:02:37.030Z,5.13
2023-05-01T05:05:03.377Z,5.80
2023-05-01T05:07:29.733Z,4.40
2023-05-01T05:09:56.112Z,4.82
2023-05-01T05:12:22.566Z,5.32
2023-05-01T05:14:49.321Z,4.88
2023-05-01T05:17:15.721Z,6.07
2023-05-01T05:19:42.743Z,4.70
2023-05-01T05:22:09.619Z,4.20
2023-05-01T05:24:36.760Z,4.35
2023-05-01T05:29:59.235Z,4.90
2023-05-01T05:32:26.587Z,3.85
2023-05-01T05:34:53.524Z,4.03
2023-05-01T05:37:24.592Z,3.50
2023-05-01T05:39:52.873Z,4.05
2023-05-01T05:42:19.896Z,3.50
2023-05-01T05:44:50.089Z,4.00
2023-05-01T05:47:24.766Z,3.70
2023-05-01T05:49:51.839Z,4.32
2023-05-01T05:52:19.266Z,4.28
2023-05-01T05:54:54.896Z,3.70
2023-05-01T06:00:18.381Z,2.90
2023-05-01T06:05:29.273Z,3.72
2023-05-01T06:13:19.731Z,4.32
2023-05-01T06:15:46.017Z,3.70
2023-05-01T06:18:21.158Z,3.20
2023-05-01T06:20:52.031Z,3.90
2023-05-01T06:23:21.476Z,5.55
2023-05-01T06:25:52.956Z,3.80
2023-05-01T06:28:20.304Z,3.85
2023-05-01T06:30:50.704Z,3.97
2023-05-01T06:35:59.894Z,4.03
2023-05-01T06:41:08.928Z,4.07
2023-05-01T06:43:37.578Z,3.67
2023-05-01T06:46:14.434Z,3.80
2023-05-01T06:48:40.707Z,3.65
2023-05-01T06:51:07.674Z,3.05
2023-05-01T06:59:14.090Z,2.97
2023-05-01T07:01:43.615Z,2.97
2023-05-01T07:04:11.773Z,3.53
2023-05-01T07:06:39.090Z,4.70
2023-05-01T07:09:06.718Z,3.35
2023-05-01T07:11:34.624Z,3.60
2023-05-01T07:14:01.789Z,4.53
2023-05-01T07:16:36.571Z,3.63
2023-05-01T07:27:12.899Z,3.22
2023-05-01T07:29:43.244Z,3.50
2023-05-01T07:32:11.082Z,3.60
2023-05-01T07:34:38.366Z,3.58
2023-05-01T07:37:15.410Z,3.03
2023-05-01T07:39:42.926Z,3.55
2023-05-01T07:42:14.623Z,4.70
2023-05-01T07:44:41.770Z,3.42
2023-05-01T07:47:12.365Z,3.50
2023-05-01T07:52:20.603Z,3.47
2023-05-01T07:54:51.110Z,2.75
2023-05-01T07:57:25.879Z,2.40
2023-05-01T08:00:21.238Z,2.53
2023-05-01T08:05:37.424Z,2.63
2023-05-01T08:08:08.080Z,2.78
2023-05-01T08:15:49.584Z,2.25
2023-05-01T08:18:20.951Z,2.45
2023-05-01T08:20:52.689Z,3.28
2023-05-01T08:23:23.908Z,2.90
2023-05-01T08:25:55.665Z,3.13
2023-05-01T08:28:26.966Z,3.25
2023-05-01T08:31:21.412Z,2.95
2023-05-01T08:33:53.448Z,3.35
2023-05-01T08:36:29.578Z,3.03
2023-05-01T12:33:15.381Z,3.83
2023-05-01T12:38:33.097Z,3.58
2023-05-01T15:42:36.711Z,4.30
2023-05-01T15:56:06.571Z,3.47
2023-05-01T16:03:59.027Z,3.35
2023-05-01T16:09:09.425Z,3.10
2023-05-01T16:12:05.031Z,2.58
2023-05-01T16:14:33.832Z,2.58
2023-05-01T16:22:29.063Z,2.15
2023-05-01T16:28:00.221Z,2.45
2023-05-01T16:33:58.958Z,2.65
2023-05-01T16:42:08.240Z,2.43
2023-05-01T16:52:49.332Z,2.08
2023-05-01T17:04:31.279Z,2.60
2023-05-01T17:06:59.147Z,2.63
2023-05-01T17:14:58.607Z,3.28
2023-05-01T17:20:14.499Z,3.40
2023-05-01T17:25:28.922Z,2.75
2023-05-01T17:28:00.961Z,3.10
2023-05-01T17:36:00.008Z,3.90
2023-05-01T17:38:35.756Z,4.15
2023-05-01T17:41:12.814Z,2.97
2023-05-01T17:43:40.662Z,3.50
2023-05-01T17:46:14.039Z,2.70
2023-05-01T17:48:50.968Z,4.15
2023-05-01T18:51:22.284Z,2.53
2023-05-01T18:59:13.980Z,3.42
2023-05-01T19:04:29.454Z,5.07
2023-05-01T19:09:41.882Z,3.83
2023-05-01T19:14:41.966Z,4.82
2023-05-01T19:22:45.644Z,3.95
2023-05-01T19:25:12.906Z,4.75
2023-05-01T19:27:43.888Z,3.97
2023-05-01T19:33:15.725Z,4.97
2023-05-01T19:38:30.196Z,4.05
2023-05-01T19:40:57.606Z,4.40
2023-05-01T19:46:06.079Z,4.15
2023-05-01T19:48:38.003Z,5.20
2023-05-01T19:51:09.024Z,4.85
2023-05-01T19:53:36.270Z,4.22
2023-05-01T19:56:09.802Z,3.78
2023-05-01T19:58:41.216Z,3.17
2023-05-01T20:02:14.372Z,4.18
2023-05-01T20:10:08.056Z,5.72
2023-05-01T20:18:08.254Z,5.57
2023-05-01T20:20:37.010Z,5.28
2023-05-01T20:23:11.219Z,4.90
2023-05-01T20:25:39.594Z,4.22
2023-05-01T20:28:11.901Z,3.58
2023-05-01T20:33:22.407Z,3.97
2023-05-01T20:35:48.954Z,3.40
2023-05-01T20:49:15.117Z,3.25
2023-05-01T20:51:45.086Z,4.40
2023-05-01T20:54:13.547Z,4.03
2023-05-01T20:56:45.811Z,4.07
2023-05-01T21:02:33.518Z,4.13
2023-05-01T21:05:10.407Z,4.50
2023-05-01T21:10:30.138Z,4.15
2023-05-01T21:15:50.075Z,3.95
2023-05-01T21:21:03.337Z,3.83
2023-05-01T21:23:39.493Z,3.88
2023-05-01T21:29:12.092Z,3.88
2023-05-01T21:31:45.952Z,4.20
2023-05-01T21:36:54.689Z,4.95
2023-05-01T21:39:32.578Z,4.22
2023-05-01T21:42:00.278Z,4.10
2023-05-01T21:44:30.366Z,4.35
2023-05-01T21:49:40.625Z,4.10
2023-05-01T21:52:11.840Z,5.18
2023-05-01T21:54:39.473Z,5.13
2023-05-01T22:00:25.580Z,5.03
2023-05-01T22:02:51.545Z,5.05
2023-05-01T22:05:19.218Z,4.88
2023-05-01T22:07:45.358Z,5.25
2023-05-01T22:10:12.176Z,5.57
2023-05-01T22:12:39.002Z,5.35
2023-05-01T22:15:05.985Z,5.18
2023-05-01T22:17:31.853Z,4.38
2023-05-01T22:19:57.826Z,4.80
2023-05-01T22:22:23.901Z,5.20
2023-05-01T22:24:49.766Z,5.40
2023-05-01T22:27:15.598Z,5.57
2023-05-01T22:29:41.712Z,4.90
2023-05-01T22:32:10.848Z,5.22
2023-05-01T22:34:36.819Z,4.80
2023-05-01T22:37:02.752Z,5.90
2023-05-01T22:39:29.190Z,5.07
2023-05-01T22:41:55.094Z,4.90
2023-05-01T22:44:22.452Z,5.00
2023-05-01T22:46:48.429Z,4.70
2023-05-01T22:49:14.228Z,4.55
2023-05-01T22:51:40.128Z,5.22
2023-05-01T22:54:05.925Z,5.68
2023-05-01T22:56:31.763Z,4.63
2023-05-01T22:58:57.714Z,4.90
2023-05-01T23:01:23.764Z,5.68
2023-05-01T23:03:50.121Z,5.05
2023-05-01T23:06:17.620Z,5.15
2023-05-01T23:08:43.495Z,4.95
2023-05-01T23:11:10.052Z,4.80
2023-05-01T23:13:36.670Z,4.45
2023-05-01T23:16:02.663Z,5.75
2023-05-01T23:18:32.504Z,4.78
2023-05-01T23:20:58.571Z,5.40
2023-05-01T23:23:29.367Z,5.22
2023-05-01T23:25:55.177Z,5.18
2023-05-01T23:28:22.064Z,5.38
2023-05-01T23:30:52.156Z,5.78
2023-05-01T23:33:20.881Z,5.80
2023-05-01T23:35:47.301Z,5.28
2023-05-01T23:38:13.286Z,5.18
2023-05-01T23:40:39.655Z,5.20
2023-05-01T23:43:05.678Z,5.43
2023-05-01T23:45:31.802Z,5.28
2023-05-01T23:47:58.061Z,5.03
2023-05-01T23:50:24.783Z,4.45
2023-05-01T23:52:51.367Z,4.95
2023-05-01T23:55:17.346Z,5.18
2023-05-01T23:57:43.318Z,4.70
